Flight Track Log - Related Links

Times and Time Zones

All times are in EDT time to prevent confusion due to time zone crossing. See the RPA4907 flight status page for this flight to view local times or setup timezone preferences in your user account.

Time Position Orientation Groundspeed Altitude Reporting Facility
EDT Latitude Longitude Course Direction KTS MPH feet Rate Location/Type
Mon 01:41:16 PM 40.6500 -74.1833 227° Southwest 173 199 1,500  Level New York TRACON
Mon 01:43:15 PM 40.6542 -74.3189 272° West 233 268 5,600 2,011 Climbing New York Center
Mon 01:44:00 PM 40.4545 -74.5742 217° Southwest  Level Estimated
Mon 01:44:15 PM 40.6619 -74.4094 276° West 233 268 7,500  Level New York Center
Mon 01:45:00 PM 40.3948 -74.6751 232° Southwest  Level Estimated
Mon 01:45:15 PM 40.6428 -74.4850 252° West 239 275 9,200  Level New York Center
Mon 01:46:00 PM 40.3350 -74.7759 227° Southwest  Level Estimated
Mon 01:46:15 PM 40.6025 -74.5706 238° Southwest 252 290 11,200  Level New York Center
Mon 01:47:15 PM 40.5667 -74.6503 239° Southwest 259 298 12,700 1,400 Climbing New York Center
Mon 01:48:15 PM 40.5306 -74.7303 239° Southwest 259 298 14,000 700 Climbing New York Center
Mon 01:49:15 PM 40.4900 -74.8181 239° Southwest 273 314 14,100  Climbing New York Center
Mon 01:50:15 PM 40.4472 -74.9164 240° Southwest 302 348 14,000 -50 Descending New York Center
Mon 01:51:15 PM 40.4003 -75.0033 235° Southwest 313 360 14,000  Level New York Center
Mon 01:52:15 PM 40.3367 -75.0894 226° Southwest 326 375 14,000  Level New York Center
Mon 01:53:15 PM 40.2686 -75.1858 227° Southwest 333 383 14,000 50 Level New York Center
Mon 01:54:15 PM 40.2092 -75.2664 226° Southwest 333 383 14,100 50 Climbing New York Center
Mon 01:55:15 PM 40.1408 -75.3650 228° Southwest 333 383 14,100  Level New York Center
Mon 01:56:15 PM 40.0814 -75.4425 225° Southwest 333 383 14,100  Level New York Center
Mon 01:57:15 PM 40.0150 -75.5383 228° Southwest 333 383 14,100  Level New York Center
Mon 01:58:15 PM 39.9575 -75.6183 227° Southwest 333 383 14,100 -50 Level New York Center
Mon 01:59:15 PM 39.8908 -75.7194 229° Southwest 333 383 14,000 -50 Descending New York Center
Mon 02:00:15 PM 39.8475 -75.8056 237° Southwest 333 383 14,000 -398 Level New York Center
Mon 02:02:00 PM 39.7658 -75.9361 247° West  Level FlightAware Approximate
Mon 02:02:46 PM 39.7167 -76.0667 247° West 329 379 12,600  Level Potomac TRACON
Mon 02:03:46 PM 39.7000 -76.1667 258° West 321 369 11,000 -1,250 Descending Potomac TRACON
Mon 02:04:46 PM 39.6500 -76.2667 237° Southwest 303 349 10,100 -1,000 Descending Potomac TRACON
Mon 02:05:46 PM 39.5833 -76.3167 210° Southwest 272 313 9,000 -850 Descending Potomac TRACON
Mon 02:06:46 PM 39.6000 -76.4000 285° West 273 314 8,400 -1,043 Descending Potomac TRACON
Mon 02:07:41 PM 39.6167 -76.4833 285° West 265 305 7,000 -1,526 Descending Potomac TRACON
Mon 02:08:40 PM 39.6000 -76.5667 255° West 246 283 5,500 -1,450 Descending Potomac TRACON
Mon 02:09:41 PM 39.5500 -76.6333 226° Southwest 242 278 4,100 -744 Descending Potomac TRACON
Mon 02:10:41 PM 39.5000 -76.7000 226° Southwest 239 275 4,000 -48 Descending Potomac TRACON
Mon 02:11:47 PM 39.4500 -76.7500 218° Southwest 234 269 4,000 -300 Level Potomac TRACON
Mon 02:12:41 PM 39.4000 -76.7833 207° Southwest 234 269 3,400 -526 Descending Potomac TRACON
Mon 02:13:41 PM 39.3333 -76.8333 210° Southwest 236 272 3,000 -248 Descending Potomac TRACON
Mon 02:14:42 PM 39.2667 -76.8333 180° South 244 281 2,900 -298 Descending Potomac TRACON
Mon 02:15:42 PM 39.2167 -76.8167 166° South 188 216 2,400 -750 Descending Potomac TRACON
Mon 02:16:42 PM 39.1833 -76.7833 142° Southeast 161 185 1,400 -800 Descending Potomac TRACON
Mon 02:17:42 PM 39.1833 -76.7333 90° East 132 152 800 -600 Descending Potomac TRACON

Login

Don't have an account? Register now (free) for customized features, flight alerts, and more!